logo
Search for airport 
image banner adimage banner adimage banner ad
image banner ad

CAD5 - Merritt

Located in , Canada

ICAO - CAD5, IATA - YMB

Data provided by Airmate  

General information

Coordinates: N50°7'22" W120°44'42"
Elevation is 2085 feet MSL.
Magnetic variation is 16.4° East
View others Airports in British Columbia

Operational data

Special qualification required
Current time UTC:
Current local time:
Weather at : CYKA - Kamloops ( 68 km )
METAR: CYKA 231700Z 08009G16KT 070V140 40SM FEW210 22/06 A3008 RMK CC1 SLP183 DENSITY ALT 2000FT
TAF: TAF CYKA 231240Z 2313/2401 VRB03KT P6SM FEW240 BECMG 2316/2318 12008KT RMK NXT FCST BY 231900Z
View NOTAMs / SUP AIP / TFR affecting this airport [VIEW]
Communications frequencies: [VIEW]

Runways:

RWY identifierQFULength (ft)Width (ft)SurfaceLDA (ft)
0349°400373ASPH4003
21229°400373ASPH4003

Airport contact information

Address: Canada

Satellite view of CAD5